createdAt,value
2018-08-30T00:05:31.545Z,2.4
2018-08-30T00:15:34.348Z,2.1
2018-08-30T00:25:33.934Z,2.1
2018-08-30T00:35:33.671Z,3.3
2018-08-30T00:45:33.444Z,2.3
2018-08-30T00:55:33.415Z,2.5
2018-08-30T01:05:33.062Z,2.2
2018-08-30T01:15:33.738Z,1.7
2018-08-30T01:25:34.793Z,2.3
2018-08-30T01:35:34.414Z,2
2018-08-30T01:45:34.033Z,1.8
2018-08-30T01:55:33.685Z,2
2018-08-30T02:05:33.422Z,3.3
2018-08-30T02:15:33.187Z,2.6
2018-08-30T02:25:33.014Z,2.5
2018-08-30T02:35:32.922Z,3
2018-08-30T02:45:32.631Z,2.4
2018-08-30T02:55:33.261Z,3.7
2018-08-30T03:05:32.962Z,2.9
2018-08-30T03:15:32.883Z,2.6
2018-08-30T03:25:36.735Z,2.3
2018-08-30T03:35:37.932Z,2
2018-08-30T03:45:37.789Z,2.6
2018-08-30T03:55:38.851Z,2.6
2018-08-30T04:05:38.911Z,4
2018-08-30T04:15:38.573Z,4.7
2018-08-30T04:25:39.153Z,3.1
2018-08-30T04:35:39.803Z,1.9
2018-08-30T04:45:42.579Z,2.8
2018-08-30T04:55:47.435Z,2.4
2018-08-30T05:05:47.025Z,1.9
2018-08-30T05:15:47.286Z,1.4
2018-08-30T05:25:49.659Z,1.5
2018-08-30T05:35:55.734Z,1.8
2018-08-30T05:45:55.318Z,2.2
2018-08-30T05:55:54.842Z,1.7
2018-08-30T06:05:58.366Z,1.2
2018-08-30T06:16:00.347Z,1.4
2018-08-30T06:26:02.777Z,1.2
2018-08-30T06:36:03.536Z,4.5
2018-08-30T06:46:06.539Z,1.4
2018-08-30T06:56:09.893Z,2.9
2018-08-30T07:06:10.184Z,1.7
2018-08-30T07:16:12.100Z,1.8
2018-08-30T07:26:13.612Z,2.1
2018-08-30T07:36:19.688Z,2
2018-08-30T07:46:20.484Z,1.9
2018-08-30T07:56:27.595Z,2.3
2018-08-30T08:06:33.766Z,2.7
2018-08-30T08:16:35.021Z,2
2018-08-30T08:26:35.620Z,2.5
2018-08-30T08:36:42.803Z,3.2
2018-08-30T08:46:42.798Z,1.9
2018-08-30T08:56:50.248Z,3
2018-08-30T09:06:51.445Z,3.1
2018-08-30T09:16:52.751Z,3.2
2018-08-30T09:26:53.069Z,5.3
2018-08-30T09:36:53.037Z,3.4
2018-08-30T09:46:52.575Z,4
2018-08-30T09:56:53.239Z,4
2018-08-30T10:06:57.347Z,4.5
2018-08-30T10:17:04.388Z,4.7
2018-08-30T10:27:06.181Z,5
2018-08-30T10:37:07.321Z,4.6
2018-08-30T10:47:15.816Z,8
2018-08-30T10:57:17.045Z,4.9
2018-08-30T11:07:17.526Z,7.3
2018-08-30T11:17:17.862Z,5.5
2018-08-30T11:27:18.990Z,5.9
2018-08-30T11:37:18.608Z,5.5
2018-08-30T11:47:19.151Z,5.2
2018-08-30T11:57:21.937Z,4.5
2018-08-30T12:07:22.906Z,6.1
2018-08-30T12:17:24.909Z,5.8
2018-08-30T12:27:35.472Z,6.1
2018-08-30T12:37:46.860Z,6.6
2018-08-30T12:47:54.180Z,5.2
2018-08-30T12:58:14.220Z,6.6
2018-08-30T13:08:41.929Z,6.7
2018-08-30T13:19:17.973Z,7.4
2018-08-30T13:29:55.054Z,5.8
2018-08-30T13:40:42.835Z,5.6
2018-08-30T13:51:42.183Z,6.1
2018-08-30T14:02:49.609Z,6.2
2018-08-30T14:13:30.054Z,7.6
2018-08-30T14:23:42.615Z,6
2018-08-30T14:33:46.686Z,7.7
2018-08-30T14:43:56.753Z,6.4
2018-08-30T14:54:40.938Z,7.7
2018-08-30T15:04:58.029Z,7.2
2018-08-30T15:15:29.394Z,6.4
2018-08-30T15:25:46.367Z,4.8
2018-08-30T15:36:04.209Z,10.2
2018-08-30T15:46:18.421Z,7.2
2018-08-30T15:56:48.974Z,4.4
2018-08-30T16:07:13.799Z,8.4
2018-08-30T16:17:26.291Z,6
2018-08-30T16:27:41.297Z,5.6
2018-08-30T16:38:04.098Z,6.5
2018-08-30T16:48:30.360Z,5.9
2018-08-30T16:58:35.228Z,7.1
2018-08-30T17:08:37.420Z,5.8
2018-08-30T17:18:58.035Z,7.3
2018-08-30T17:29:48.970Z,7.4
2018-08-30T17:40:05.308Z,7.3
2018-08-30T17:50:25.339Z,5.5
2018-08-30T18:00:34.105Z,7.5
2018-08-30T18:10:49.815Z,6.4
2018-08-30T18:21:04.846Z,6.9
2018-08-30T18:31:25.733Z,6.7
2018-08-30T18:41:38.826Z,7.4
2018-08-30T18:51:58.257Z,8.7
2018-08-30T19:02:31.917Z,5.9
2018-08-30T19:12:57.526Z,8
2018-08-30T19:23:17.494Z,9.1
2018-08-30T19:33:37.785Z,7.8
2018-08-30T19:43:48.304Z,11.3
2018-08-30T19:53:48.443Z,8.6
2018-08-30T20:03:52.244Z,8.8
2018-08-30T20:13:52.951Z,7.4
2018-08-30T20:23:52.637Z,7.8
2018-08-30T20:33:52.439Z,8.1
2018-08-30T20:43:52.307Z,9
2018-08-30T20:53:52.200Z,9
2018-08-30T21:03:53.078Z,9.8
2018-08-30T21:13:52.789Z,8
2018-08-30T21:23:52.422Z,7
2018-08-30T21:33:52.522Z,9.7
2018-08-30T21:43:52.145Z,9.8
2018-08-30T21:53:54.643Z,7.6
2018-08-30T22:03:55.281Z,7.7
2018-08-30T22:13:55.256Z,12.4
2018-08-30T22:23:54.891Z,10.4
2018-08-30T22:33:54.483Z,9.3
2018-08-30T22:43:55.092Z,11.5
2018-08-30T22:53:58.007Z,10
2018-08-30T23:04:00.698Z,7.8
2018-08-30T23:14:00.693Z,7
2018-08-30T23:24:00.281Z,10
2018-08-30T23:34:00.496Z,8.8
2018-08-30T23:44:00.260Z,10.3
2018-08-30T23:54:00.242Z,10.9
